Time;durP1;ratioP1;P1;durP2;ratioP2;P2;SDS_P1;SDS_P2;PMS_P1;PMS_P2;Temp;Humidity;BMP_temperature;BMP_pressure;BME280_temperature;BME280_humidity;BME280_pressure;Samples;Min_cycle;Max_cycle;Signal;HPM_P1;HPM_P2
2022/03/16 00:00:19;;;;;;;15.70;11.85;;;;;;;;;;143744;570;46018;-65
2022/03/16 00:02:48;;;;;;;18.70;12.95;;;;;;;;;;143740;569;46921;-65
2022/03/16 00:05:15;;;;;;;16.83;11.15;;;;;;;;;;143737;589;46012;-67
2022/03/16 00:07:42;;;;;;;17.15;11.02;;;;;;;;;;143742;594;46022;-65
2022/03/16 00:10:10;;;;;;;17.35;10.55;;;;;;;;;;143742;655;46020;-66
2022/03/16 00:12:39;;;;;;;19.02;11.70;;;;;;;;;;143740;583;46022;-66
2022/03/16 00:15:06;;;;;;;17.37;11.90;;;;;;;;;;143743;580;45913;-67
2022/03/16 00:17:34;;;;;;;15.48;10.73;;;;;;;;;;143744;569;46002;-66
2022/03/16 00:20:01;;;;;;;15.95;12.13;;;;;;;;;;143742;576;46018;-66
2022/03/16 00:22:28;;;;;;;16.45;10.95;;;;;;;;;;143739;604;46921;-66
2022/03/16 00:24:55;;;;;;;16.08;11.90;;;;;;;;;;143743;621;45914;-66
2022/03/16 00:27:22;;;;;;;17.73;12.15;;;;;;;;;;143743;588;45022;-65
2022/03/16 00:29:50;;;;;;;18.05;12.25;;;;;;;;;;143737;580;46018;-66
2022/03/16 00:32:17;;;;;;;17.20;11.07;;;;;;;;;;143741;569;46023;-65
2022/03/16 00:34:44;;;;;;;24.70;15.82;;;;;;;;;;143744;590;46012;-66
2022/03/16 00:37:11;;;;;;;21.80;14.85;;;;;;;;;;143746;582;45022;-65
2022/03/16 00:39:38;;;;;;;24.75;15.02;;;;;;;;;;143741;581;46019;-65
2022/03/16 00:42:05;;;;;;;18.05;11.73;;;;;;;;;;143740;578;46921;-65
2022/03/16 00:44:35;;;;;;;20.50;14.10;;;;;;;;;;143739;564;46018;-65
2022/03/16 00:47:04;;;;;;;18.67;12.68;;;;;;;;;;143745;581;45033;-66
2022/03/16 00:49:31;;;;;;;20.85;15.38;;;;;;;;;;143742;569;46020;-65
2022/03/16 00:51:59;;;;;;;16.77;12.18;;;;;;;;;;143740;569;46022;-65
2022/03/16 00:54:26;;;;;;;21.25;14.85;;;;;;;;;;143737;576;46013;-65
2022/03/16 00:56:53;;;;;;;17.30;12.57;;;;;;;;;;143743;573;45023;-66
2022/03/16 00:59:20;;;;;;;16.55;12.40;;;;;;;;;;143740;571;47020;-65
2022/03/16 01:01:47;;;;;;;21.00;13.05;;;;;;;;;;143741;610;46023;-66
2022/03/16 01:04:14;;;;;;;20.25;13.60;;;;;;;;;;143742;569;46012;-65
2022/03/16 01:06:41;;;;;;;20.92;14.23;;;;;;;;;;143743;573;45022;-65
2022/03/16 01:09:08;;;;;;;19.60;11.88;;;;;;;;;;143744;628;46019;-65
2022/03/16 01:11:36;;;;;;;17.23;11.25;;;;;;;;;;143740;564;46022;-65
2022/03/16 01:14:03;;;;;;;19.20;13.38;;;;;;;;;;143743;649;46012;-65
2022/03/16 01:16:32;;;;;;;20.98;14.02;;;;;;;;;;143743;607;45027;-65
2022/03/16 01:18:59;;;;;;;16.05;11.43;;;;;;;;;;143736;565;46018;-65
2022/03/16 01:21:26;;;;;;;13.60;10.60;;;;;;;;;;143741;563;46921;-66
2022/03/16 01:23:53;;;;;;;16.17;11.30;;;;;;;;;;143743;600;46012;-65
2022/03/16 01:26:20;;;;;;;18.00;12.95;;;;;;;;;;143744;569;45023;-65
2022/03/16 01:28:47;;;;;;;15.02;10.85;;;;;;;;;;143745;588;46018;-66
2022/03/16 01:31:14;;;;;;;14.65;11.02;;;;;;;;;;143739;576;46922;-65
2022/03/16 01:33:41;;;;;;;19.15;11.80;;;;;;;;;;143743;582;46012;-65
2022/03/16 01:36:08;;;;;;;18.15;12.32;;;;;;;;;;143745;572;46012;-65
2022/03/16 01:38:35;;;;;;;16.65;11.65;;;;;;;;;;143742;648;46019;-65
2022/03/16 01:41:02;;;;;;;19.10;13.00;;;;;;;;;;143740;685;46022;-66
2022/03/16 01:43:29;;;;;;;20.62;13.25;;;;;;;;;;143735;577;45913;-65
2022/03/16 01:45:56;;;;;;;16.23;11.23;;;;;;;;;;143741;566;45023;-65
2022/03/16 01:48:23;;;;;;;21.40;14.18;;;;;;;;;;143741;740;46018;-65
2022/03/16 01:50:50;;;;;;;21.27;14.10;;;;;;;;;;143738;672;46022;-65
2022/03/16 01:53:18;;;;;;;19.67;13.50;;;;;;;;;;143742;663;46012;-66
2022/03/16 01:55:45;;;;;;;20.98;13.38;;;;;;;;;;143742;586;46012;-65
2022/03/16 01:58:12;;;;;;;22.65;14.48;;;;;;;;;;143741;591;46018;-65
2022/03/16 02:00:40;;;;;;;17.55;12.20;;;;;;;;;;143738;566;46022;-65
2022/03/16 02:03:08;;;;;;;17.70;11.90;;;;;;;;;;143739;573;46012;-65
2022/03/16 02:05:38;;;;;;;20.30;13.23;;;;;;;;;;143742;585;46022;-65
2022/03/16 02:08:08;;;;;;;20.73;14.65;;;;;;;;;;143734;594;46036;-66
2022/03/16 02:10:35;;;;;;;15.88;11.05;;;;;;;;;;143740;583;46022;-65
2022/03/16 02:13:03;;;;;;;21.70;13.40;;;;;;;;;;143741;575;46012;-65
2022/03/16 02:15:30;;;;;;;17.50;12.48;;;;;;;;;;143741;570;46022;-66
2022/03/16 02:17:57;;;;;;;17.40;12.07;;;;;;;;;;143743;586;46018;-66
2022/03/16 02:20:27;;;;;;;16.20;11.68;;;;;;;;;;143739;578;46022;-65
2022/03/16 02:23:02;;;;;;;19.80;12.77;;;;;;;;;;143741;564;46012;-65
2022/03/16 02:25:29;;;;;;;;;;;;;;;;;;143746;979;46023;-66
2022/03/16 02:27:57;;;;;;;16.08;11.48;;;;;;;;;;143748;569;46018;-65
2022/03/16 02:30:27;;;;;;;17.48;12.30;;;;;;;;;;143738;690;46023;-66
2022/03/16 02:32:54;;;;;;;17.90;11.95;;;;;;;;;;143736;717;45914;-65
2022/03/16 02:35:21;;;;;;;15.60;11.25;;;;;;;;;;143740;582;46022;-65
2022/03/16 02:37:48;;;;;;;17.73;12.98;;;;;;;;;;143741;564;46019;-65
2022/03/16 02:40:20;;;;;;;17.55;12.25;;;;;;;;;;143739;581;46023;-66
2022/03/16 02:42:47;;;;;;;25.02;15.35;;;;;;;;;;143739;655;45913;-66
2022/03/16 02:45:14;;;;;;;16.70;10.93;;;;;;;;;;143741;570;45030;-65
2022/03/16 02:47:41;;;;;;;19.48;13.60;;;;;;;;;;143741;569;46018;-65
2022/03/16 02:50:09;;;;;;;20.02;13.43;;;;;;;;;;143740;741;46022;-66
2022/03/16 02:52:36;;;;;;;15.13;10.95;;;;;;;;;;143741;573;46012;-65
2022/03/16 02:55:05;;;;;;;18.77;11.70;;;;;;;;;;143739;649;46023;-65
2022/03/16 02:57:32;;;;;;;15.50;11.60;;;;;;;;;;143733;605;46020;-66
2022/03/16 02:59:59;;;;;;;19.27;12.37;;;;;;;;;;143739;585;46921;-66
2022/03/16 03:02:26;;;;;;;21.05;12.43;;;;;;;;;;143742;588;45914;-66
2022/03/16 03:04:53;;;;;;;19.67;12.95;;;;;;;;;;143743;619;45022;-67
2022/03/16 03:07:21;;;;;;;15.90;10.63;;;;;;;;;;143742;752;46019;-65
2022/03/16 03:09:48;;;;;;;14.32;10.45;;;;;;;;;;143739;593;46921;-67
2022/03/16 03:12:15;;;;;;;14.93;10.35;;;;;;;;;;143741;623;46018;-66
2022/03/16 03:14:42;;;;;;;19.25;12.25;;;;;;;;;;143741;605;46022;-67
2022/03/16 03:17:10;;;;;;;18.65;13.25;;;;;;;;;;143739;603;47021;-65
2022/03/16 03:19:37;;;;;;;17.90;12.65;;;;;;;;;;143735;585;46921;-66
2022/03/16 03:22:05;;;;;;;15.27;11.48;;;;;;;;;;143737;569;45911;-66
2022/03/16 03:24:32;;;;;;;18.60;12.85;;;;;;;;;;143740;589;46023;-66
2022/03/16 03:26:59;;;;;;;15.27;10.88;;;;;;;;;;143741;594;46020;-66
2022/03/16 03:29:26;;;;;;;18.80;12.30;;;;;;;;;;143737;594;46921;-65
2022/03/16 03:31:53;;;;;;;17.67;13.80;;;;;;;;;;143741;593;46010;-66
2022/03/16 03:34:20;;;;;;;18.92;11.27;;;;;;;;;;143742;710;46022;-66
2022/03/16 03:36:47;;;;;;;17.20;10.55;;;;;;;;;;143741;606;46019;-66
2022/03/16 03:39:15;;;;;;;14.07;10.23;;;;;;;;;;143740;698;46010;-66
2022/03/16 03:41:42;;;;;;;14.70;10.93;;;;;;;;;;143741;620;46010;-66
2022/03/16 03:44:09;;;;;;;15.70;10.90;;;;;;;;;;143743;573;45023;-67
2022/03/16 03:46:36;;;;;;;14.98;10.77;;;;;;;;;;143733;585;46018;-66
2022/03/16 03:49:03;;;;;;;17.42;12.30;;;;;;;;;;143737;576;46921;-66
2022/03/16 03:51:30;;;;;;;14.95;11.40;;;;;;;;;;143742;574;45911;-66
2022/03/16 03:53:57;;;;;;;15.73;12.23;;;;;;;;;;143743;576;45023;-67
2022/03/16 03:56:24;;;;;;;17.80;12.85;;;;;;;;;;143741;566;47018;-65
2022/03/16 03:58:51;;;;;;;16.62;11.10;;;;;;;;;;143736;593;46921;-67
2022/03/16 04:01:18;;;;;;;16.42;12.15;;;;;;;;;;143741;593;46019;-66
2022/03/16 04:03:45;;;;;;;16.60;10.10;;;;;;;;;;143741;592;46022;-65
2022/03/16 04:06:13;;;;;;;18.42;14.23;;;;;;;;;;143741;622;46018;-67
2022/03/16 04:08:40;;;;;;;20.65;13.18;;;;;;;;;;143738;574;46023;-66
2022/03/16 04:11:07;;;;;;;20.67;13.40;;;;;;;;;;143735;579;45911;-67
2022/03/16 04:13:34;;;;;;;20.05;13.95;;;;;;;;;;143740;623;45022;-66
2022/03/16 04:16:01;;;;;;;19.00;12.80;;;;;;;;;;143741;600;46019;-66
2022/03/16 04:18:28;;;;;;;17.77;12.15;;;;;;;;;;143738;579;46922;-66
2022/03/16 04:20:55;;;;;;;16.70;10.77;;;;;;;;;;143740;575;45911;-67
2022/03/16 04:23:22;;;;;;;16.27;11.25;;;;;;;;;;143744;651;45023;-66
2022/03/16 04:25:49;;;;;;;17.40;11.45;;;;;;;;;;143743;579;46018;-67
2022/03/16 04:28:16;;;;;;;20.60;12.05;;;;;;;;;;143734;580;46022;-66
2022/03/16 04:30:43;;;;;;;17.23;12.25;;;;;;;;;;143740;585;46010;-67
2022/03/16 04:33:10;;;;;;;17.98;12.98;;;;;;;;;;143740;577;45022;-67
2022/03/16 04:35:37;;;;;;;17.62;10.90;;;;;;;;;;143736;563;46010;-65
2022/03/16 04:38:04;;;;;;;17.65;11.98;;;;;;;;;;143738;737;46921;-65
2022/03/16 04:40:32;;;;;;;14.68;11.63;;;;;;;;;;143741;570;46010;-67
2022/03/16 04:42:59;;;;;;;27.02;15.48;;;;;;;;;;143743;697;45022;-66
2022/03/16 04:45:26;;;;;;;17.62;12.00;;;;;;;;;;143740;608;46021;-67
2022/03/16 04:47:53;;;;;;;15.85;11.52;;;;;;;;;;143738;733;46922;-67
2022/03/16 04:50:20;;;;;;;19.02;11.18;;;;;;;;;;143739;584;46018;-67
2022/03/16 04:52:49;;;;;;;17.42;12.25;;;;;;;;;;143743;581;45023;-66
2022/03/16 04:55:17;;;;;;;17.48;12.80;;;;;;;;;;143741;598;47018;-66
2022/03/16 04:57:44;;;;;;;18.37;12.07;;;;;;;;;;143738;565;46022;-67
2022/03/16 05:00:12;;;;;;;24.17;14.87;;;;;;;;;;143735;589;46011;-67
2022/03/16 05:02:39;;;;;;;23.23;14.63;;;;;;;;;;143730;625;45914;-67
2022/03/16 05:05:06;;;;;;;23.45;15.30;;;;;;;;;;143740;577;46913;-67
2022/03/16 05:07:33;;;;;;;16.83;11.35;;;;;;;;;;143737;605;47922;-66
2022/03/16 05:10:00;;;;;;;14.65;10.18;;;;;;;;;;143740;584;45910;-66
2022/03/16 05:12:27;;;;;;;23.62;13.65;;;;;;;;;;143742;594;46022;-65
2022/03/16 05:14:54;;;;;;;15.52;10.40;;;;;;;;;;143741;587;46913;-67
2022/03/16 05:17:21;;;;;;;22.30;13.40;;;;;;;;;;143739;654;46022;-67
2022/03/16 05:19:51;;;;;;;16.73;10.98;;;;;;;;;;143739;615;46010;-67
2022/03/16 05:22:18;;;;;;;21.05;13.07;;;;;;;;;;143742;618;46022;-66
2022/03/16 05:24:45;;;;;;;21.08;13.18;;;;;;;;;;143735;564;46018;-67
2022/03/16 05:27:12;;;;;;;21.00;12.95;;;;;;;;;;143740;614;46022;-66
2022/03/16 05:29:40;;;;;;;18.73;12.98;;;;;;;;;;143743;569;45911;-67
2022/03/16 05:32:07;;;;;;;24.95;14.00;;;;;;;;;;143744;595;45023;-66
2022/03/16 05:34:34;;;;;;;21.23;15.02;;;;;;;;;;143738;582;47018;-67
2022/03/16 05:37:01;;;;;;;20.90;14.27;;;;;;;;;;143740;688;46022;-65
2022/03/16 05:39:28;;;;;;;27.87;21.25;;;;;;;;;;143741;610;46010;-66
2022/03/16 05:41:55;;;;;;;26.23;17.12;;;;;;;;;;143741;655;46022;-67
2022/03/16 05:44:23;;;;;;;34.97;25.33;;;;;;;;;;143743;599;46019;-67
2022/03/16 05:46:50;;;;;;;28.62;19.15;;;;;;;;;;143740;603;47010;-66
2022/03/16 05:49:17;;;;;;;32.90;18.37;;;;;;;;;;143735;580;45911;-66
2022/03/16 05:51:44;;;;;;;34.53;20.67;;;;;;;;;;143743;564;45023;-67
2022/03/16 05:54:11;;;;;;;30.42;16.75;;;;;;;;;;143740;569;46018;-66
2022/03/16 05:56:38;;;;;;;33.20;18.42;;;;;;;;;;143740;591;46010;-66
2022/03/16 05:59:05;;;;;;;73.00;35.65;;;;;;;;;;143740;591;46010;-66
2022/03/16 06:01:32;;;;;;;45.85;25.08;;;;;;;;;;143743;565;46010;-68
2022/03/16 06:03:59;;;;;;;27.23;17.90;;;;;;;;;;143743;601;46018;-68
2022/03/16 06:06:26;;;;;;;81.22;49.55;;;;;;;;;;143741;573;46011;-67
2022/03/16 06:08:54;;;;;;;62.85;36.63;;;;;;;;;;143739;596;46019;-67
2022/03/16 06:11:22;;;;;;;52.97;30.58;;;;;;;;;;143740;579;46022;-68
2022/03/16 06:13:49;;;;;;;74.35;39.20;;;;;;;;;;143737;586;46020;-67
2022/03/16 06:16:16;;;;;;;67.97;36.25;;;;;;;;;;143741;590;45922;-66
2022/03/16 06:18:44;;;;;;;75.60;38.28;;;;;;;;;;143741;570;45911;-69
2022/03/16 06:21:12;;;;;;;66.95;35.42;;;;;;;;;;143743;579;46022;-67
2022/03/16 06:23:39;;;;;;;75.37;37.85;;;;;;;;;;143740;573;46021;-68
2022/03/16 06:26:08;;;;;;;86.50;40.17;;;;;;;;;;143739;663;45921;-67
2022/03/16 06:28:36;;;;;;;83.32;34.03;;;;;;;;;;143741;630;46912;-67
2022/03/16 06:31:07;;;;;;;47.78;24.00;;;;;;;;;;143744;573;45023;-67
2022/03/16 06:33:37;;;;;;;71.10;30.33;;;;;;;;;;143743;583;46010;-67
2022/03/16 06:36:05;;;;;;;79.43;35.63;;;;;;;;;;143741;613;45921;-67
2022/03/16 06:38:34;;;;;;;79.10;34.13;;;;;;;;;;143736;577;45912;-69
2022/03/16 06:41:04;;;;;;;83.20;36.58;;;;;;;;;;143745;569;46010;-66
2022/03/16 06:43:32;;;;;;;77.82;35.63;;;;;;;;;;143741;586;45020;-67
2022/03/16 06:46:01;;;;;;;95.75;39.45;;;;;;;;;;143737;646;47010;-68
2022/03/16 06:48:30;;;;;;;96.70;41.50;;;;;;;;;;143742;565;46018;-67
2022/03/16 06:50:58;;;;;;;81.55;38.40;;;;;;;;;;143743;569;46023;-67
2022/03/16 06:53:28;;;;;;;92.32;45.95;;;;;;;;;;143743;569;45926;-67
2022/03/16 06:55:56;;;;;;;87.20;49.38;;;;;;;;;;143740;645;45921;-69
2022/03/16 06:58:26;;;;;;;87.32;46.35;;;;;;;;;;143742;598;45911;-67
2022/03/16 07:00:57;;;;;;;78.43;39.67;;;;;;;;;;143741;596;46010;-67
2022/03/16 07:03:24;;;;;;;70.80;35.15;;;;;;;;;;143735;652;46018;-69
2022/03/16 07:05:51;;;;;;;55.88;29.10;;;;;;;;;;143738;606;46921;-68
2022/03/16 07:08:19;;;;;;;52.62;26.55;;;;;;;;;;143741;577;46018;-67
2022/03/16 07:10:46;;;;;;;68.12;35.47;;;;;;;;;;143740;592;46022;-69
2022/03/16 07:13:14;;;;;;;71.43;38.65;;;;;;;;;;143741;569;46020;-67
2022/03/16 07:15:43;;;;;;;82.10;42.62;;;;;;;;;;143741;582;46010;-67
2022/03/16 07:18:10;;;;;;;78.95;39.05;;;;;;;;;;143742;620;45913;-69
2022/03/16 07:20:38;;;;;;;73.43;38.13;;;;;;;;;;143741;594;45021;-68
2022/03/16 07:23:18;;;;;;;74.25;39.22;;;;;;;;;;143741;569;46018;-69
2022/03/16 07:25:51;;;;;;;67.37;37.28;;;;;;;;;;143740;571;46010;-68
2022/03/16 07:28:21;;;;;;;81.53;40.05;;;;;;;;;;143736;589;45912;-70
2022/03/16 07:30:48;;;;;;;64.78;33.47;;;;;;;;;;143744;578;45023;-70
2022/03/16 07:33:18;;;;;;;59.95;30.48;;;;;;;;;;143744;662;45020;-69
2022/03/16 07:35:46;;;;;;;61.95;32.30;;;;;;;;;;143738;651;46011;-68
2022/03/16 07:38:13;;;;;;;55.42;26.20;;;;;;;;;;143741;569;46018;-67
2022/03/16 07:40:42;;;;;;;56.03;29.52;;;;;;;;;;143741;583;46010;-68
2022/03/16 07:43:11;;;;;;;42.30;24.42;;;;;;;;;;143741;569;46020;-68
2022/03/16 07:45:43;;;;;;;45.47;24.70;;;;;;;;;;143741;707;46022;-68
2022/03/16 07:48:28;;;;;;;38.55;21.37;;;;;;;;;;143743;570;45018;-68
2022/03/16 07:51:01;;;;;;;32.70;20.58;;;;;;;;;;143743;642;45023;-69
2022/03/16 07:53:31;;;;;;;51.47;27.90;;;;;;;;;;143738;574;45020;-69
2022/03/16 07:55:59;;;;;;;48.25;26.27;;;;;;;;;;143742;592;46010;-68
2022/03/16 07:58:27;;;;;;;62.88;36.78;;;;;;;;;;143743;598;45911;-68
2022/03/16 08:00:56;;;;;;;43.42;26.27;;;;;;;;;;143739;564;46022;-67
2022/03/16 08:03:26;;;;;;;29.85;19.00;;;;;;;;;;143739;635;46020;-68
2022/03/16 08:05:57;;;;;;;34.80;19.55;;;;;;;;;;143742;622;46010;-67
2022/03/16 08:08:25;;;;;;;28.00;17.45;;;;;;;;;;143742;574;46010;-66
2022/03/16 08:10:53;;;;;;;27.77;18.42;;;;;;;;;;143744;580;45022;-68
2022/03/16 08:13:21;;;;;;;31.65;16.98;;;;;;;;;;143742;607;46019;-66
2022/03/16 08:15:50;;;;;;;27.45;17.85;;;;;;;;;;143742;596;46922;-67
2022/03/16 08:18:17;;;;;;;27.45;17.90;;;;;;;;;;143737;587;46018;-67
2022/03/16 08:20:47;;;;;;;35.00;17.73;;;;;;;;;;143741;627;46023;-69
2022/03/16 08:23:15;;;;;;;25.23;16.65;;;;;;;;;;143745;605;46018;-67
2022/03/16 08:25:44;;;;;;;26.25;17.77;;;;;;;;;;143740;573;46010;-67
2022/03/16 08:28:13;;;;;;;25.35;15.60;;;;;;;;;;143740;629;45019;-66
2022/03/16 08:30:43;;;;;;;26.05;16.00;;;;;;;;;;143744;566;45023;-65
2022/03/16 08:33:11;;;;;;;23.10;15.30;;;;;;;;;;143745;590;45020;-67
2022/03/16 08:35:41;;;;;;;31.65;18.83;;;;;;;;;;143742;581;45922;-65
2022/03/16 08:38:13;;;;;;;39.72;23.35;;;;;;;;;;143744;569;45018;-67
2022/03/16 08:40:45;;;;;;;27.75;16.75;;;;;;;;;;143745;598;46022;-65
2022/03/16 08:43:14;;;;;;;31.60;18.73;;;;;;;;;;143737;564;45020;-67
2022/03/16 08:45:44;;;;;;;26.77;17.70;;;;;;;;;;143741;610;46010;-69
2022/03/16 08:48:13;;;;;;;23.27;15.05;;;;;;;;;;143742;627;45911;-67
2022/03/16 08:50:43;;;;;;;23.23;14.77;;;;;;;;;;143743;570;46010;-65
2022/03/16 08:53:14;;;;;;;23.20;15.15;;;;;;;;;;143743;564;46018;-66
2022/03/16 08:55:43;;;;;;;28.92;16.20;;;;;;;;;;143737;592;46010;-67
2022/03/16 08:58:13;;;;;;;21.65;15.48;;;;;;;;;;143743;571;45911;-69
2022/03/16 09:00:41;;;;;;;21.98;16.37;;;;;;;;;;143744;603;45022;-69
2022/03/16 09:03:08;;;;;;;36.63;21.83;;;;;;;;;;143744;810;45020;-67
2022/03/16 09:05:37;;;;;;;24.30;14.95;;;;;;;;;;143740;691;46010;-68
2022/03/16 09:08:04;;;;;;;30.58;20.37;;;;;;;;;;143736;743;46037;-69
2022/03/16 09:10:32;;;;;;;27.37;15.90;;;;;;;;;;143742;784;46010;-68
2022/03/16 09:13:04;;;;;;;35.88;20.95;;;;;;;;;;143743;564;46021;-65
2022/03/16 09:15:32;;;;;;;28.73;17.73;;;;;;;;;;143740;640;46919;-66
2022/03/16 09:18:01;;;;;;;22.10;15.20;;;;;;;;;;143744;614;45911;-65
2022/03/16 09:20:31;;;;;;;25.42;15.77;;;;;;;;;;143744;571;45021;-66
2022/03/16 09:23:03;;;;;;;27.55;17.85;;;;;;;;;;143746;653;45023;-66
2022/03/16 09:25:33;;;;;;;28.95;16.42;;;;;;;;;;143744;605;45920;-67
2022/03/16 09:28:00;;;;;;;21.30;15.38;;;;;;;;;;143743;634;45021;-64
2022/03/16 09:30:27;;;;;;;21.40;15.50;;;;;;;;;;143743;566;45021;-66
2022/03/16 09:32:57;;;;;;;26.70;15.32;;;;;;;;;;143734;569;46020;-65
2022/03/16 09:35:25;;;;;;;23.92;14.80;;;;;;;;;;143741;609;46919;-65
2022/03/16 09:37:53;;;;;;;20.40;14.63;;;;;;;;;;143741;615;45910;-66
2022/03/16 09:40:20;;;;;;;25.17;14.82;;;;;;;;;;143744;563;45020;-65
2022/03/16 09:42:48;;;;;;;27.30;14.25;;;;;;;;;;143741;775;46021;-65
2022/03/16 09:45:20;;;;;;;25.15;14.10;;;;;;;;;;143743;591;46010;-66
2022/03/16 09:47:48;;;;;;;21.85;14.13;;;;;;;;;;143740;623;46020;-66
2022/03/16 09:50:20;;;;;;;25.70;14.15;;;;;;;;;;143744;564;46020;-65
2022/03/16 09:52:48;;;;;;;22.92;13.25;;;;;;;;;;143744;578;46020;-65
2022/03/16 09:55:17;;;;;;;31.55;14.87;;;;;;;;;;143740;627;46020;-65
2022/03/16 09:57:44;;;;;;;26.23;14.52;;;;;;;;;;143737;639;46011;-64
2022/03/16 10:00:12;;;;;;;26.92;13.52;;;;;;;;;;143742;621;46010;-65
2022/03/16 10:02:40;;;;;;;22.80;13.32;;;;;;;;;;143744;579;46022;-65
2022/03/16 10:05:10;;;;;;;23.35;14.48;;;;;;;;;;143741;611;46021;-65
2022/03/16 10:07:38;;;;;;;20.67;13.93;;;;;;;;;;143744;575;46010;-65
2022/03/16 10:15:36;;;;;;;25.45;14.82;;;;;;;;;;143741;585;46020;-63
2022/03/16 10:18:04;;;;;;;22.73;14.65;;;;;;;;;;143742;630;46010;-64
2022/03/16 10:20:36;;;;;;;20.58;14.13;;;;;;;;;;143744;603;45021;-65
2022/03/16 10:23:14;;;;;;;19.35;14.15;;;;;;;;;;143736;605;46020;-65
2022/03/16 10:25:55;;;;;;;21.60;12.48;;;;;;;;;;143739;607;46919;-66
2022/03/16 10:28:29;;;;;;;19.52;12.90;;;;;;;;;;143743;564;45912;-66
2022/03/16 10:31:19;;;;;;;23.95;13.82;;;;;;;;;;143744;609;46020;-66
2022/03/16 10:33:53;;;;;;;19.20;12.63;;;;;;;;;;143740;612;47020;-66
2022/03/16 10:36:25;;;;;;;21.85;13.65;;;;;;;;;;143741;564;46021;-66
2022/03/16 10:38:54;;;;;;;24.92;15.15;;;;;;;;;;143743;626;46010;-67
2022/03/16 10:47:03;;;;;;;21.05;14.02;;;;;;;;;;143740;769;46010;-66
2022/03/16 10:49:32;;;;;;;20.50;13.18;;;;;;;;;;143738;597;46021;-65
2022/03/16 10:52:05;;;;;;;30.17;15.85;;;;;;;;;;143744;615;45027;-65
2022/03/16 10:54:33;;;;;;;23.25;15.38;;;;;;;;;;143745;593;46020;-66
2022/03/16 10:57:02;;;;;;;18.52;12.90;;;;;;;;;;143740;574;46021;-66
2022/03/16 10:59:33;;;;;;;21.52;13.43;;;;;;;;;;143743;593;46010;-66
2022/03/16 11:02:05;;;;;;;23.48;12.65;;;;;;;;;;143739;787;46020;-67
2022/03/16 11:04:34;;;;;;;23.35;13.30;;;;;;;;;;143744;566;46021;-66
2022/03/16 11:07:01;;;;;;;26.12;14.98;;;;;;;;;;143741;655;46020;-66
2022/03/16 11:09:29;;;;;;;26.05;14.95;;;;;;;;;;143744;614;46010;-66
2022/03/16 11:14:43;;;;;;;23.80;14.15;;;;;;;;;;143740;730;45020;-66
2022/03/16 11:17:10;;;;;;;21.45;11.80;;;;;;;;;;143743;579;46917;-65
2022/03/16 11:19:38;;;;;;;18.17;11.50;;;;;;;;;;143745;570;45910;-67
2022/03/16 11:22:35;;;;;;;19.12;12.80;;;;;;;;;;143743;677;45020;-66
2022/03/16 11:25:16;;;;;;;20.58;12.70;;;;;;;;;;143742;663;46022;-65
2022/03/16 11:27:54;;;;;;;20.88;12.25;;;;;;;;;;143742;914;46010;-67
2022/03/16 11:30:35;;;;;;;17.55;11.63;;;;;;;;;;143742;668;46010;-66
2022/03/16 11:33:15;;;;;;;19.12;12.45;;;;;;;;;;143743;696;47011;-67
2022/03/16 11:35:47;;;;;;;19.70;12.13;;;;;;;;;;143743;855;46021;-66
2022/03/16 11:38:15;;;;;;;19.35;12.43;;;;;;;;;;143743;812;46020;-66
2022/03/16 11:40:47;;;;;;;18.23;12.73;;;;;;;;;;143738;588;45909;-67
2022/03/16 11:43:22;;;;;;;19.15;11.75;;;;;;;;;;143745;569;45021;-65
2022/03/16 11:45:57;;;;;;;18.25;11.88;;;;;;;;;;143744;612;46022;-65
2022/03/16 11:48:55;;;;;;;23.83;11.95;;;;;;;;;;143741;580;46021;-66
2022/03/16 11:51:24;;;;;;;16.55;11.50;;;;;;;;;;143743;628;46010;-65
2022/03/16 11:54:11;;;;;;;20.92;12.75;;;;;;;;;;143744;610;45022;-66
2022/03/16 11:56:46;;;;;;;21.45;13.73;;;;;;;;;;143743;584;46010;-66
2022/03/16 11:59:44;;;;;;;18.98;12.35;;;;;;;;;;143741;564;46917;-65
2022/03/16 12:02:25;;;;;;;61.67;33.45;;;;;;;;;;143743;620;46010;-67
2022/03/16 12:05:00;;;;;;;21.30;12.77;;;;;;;;;;143744;659;46030;-68
2022/03/16 12:07:30;;;;;;;35.17;18.33;;;;;;;;;;143735;600;46023;-65
2022/03/16 12:10:03;;;;;;;22.83;12.95;;;;;;;;;;143740;580;46020;-66
2022/03/16 12:12:57;;;;;;;30.70;18.98;;;;;;;;;;143738;611;46021;-65
2022/03/16 12:15:42;;;;;;;23.17;14.73;;;;;;;;;;143736;906;46020;-66
2022/03/16 12:18:26;;;;;;;;;;;;;;;;;;143743;981;46020;-65
2022/03/16 12:21:00;;;;;;;34.60;19.92;;;;;;;;;;143743;608;46020;-66
2022/03/16 12:25:08;;;;;;;24.80;15.30;;;;;;;;;;143742;606;45911;-66
2022/03/16 12:29:39;;;;;;;23.83;16.10;;;;;;;;;;143742;866;46020;-65
2022/03/16 12:32:06;;;;;;;24.83;16.52;;;;;;;;;;143741;579;46020;-65
2022/03/16 12:34:33;;;;;;;21.42;13.40;;;;;;;;;;143738;894;45911;-67
2022/03/16 12:37:01;;;;;;;26.70;12.68;;;;;;;;;;143745;669;45020;-65
2022/03/16 12:39:29;;;;;;;20.70;12.95;;;;;;;;;;143741;746;46020;-66
2022/03/16 12:44:55;;;;;;;20.67;12.75;;;;;;;;;;143743;636;45020;-66
2022/03/16 12:47:25;;;;;;;;;;;;;;;;;;143747;982;46020;-65
2022/03/16 12:49:54;;;;;;;21.70;13.15;;;;;;;;;;143748;634;46021;-65
2022/03/16 12:52:21;;;;;;;20.27;13.07;;;;;;;;;;143739;564;47020;-65
2022/03/16 12:54:48;;;;;;;22.58;13.18;;;;;;;;;;143743;612;46010;-65
2022/03/16 12:57:16;;;;;;;20.10;13.07;;;;;;;;;;143742;726;46021;-66
2022/03/16 12:59:48;;;;;;;21.20;13.43;;;;;;;;;;143735;583;46020;-66
2022/03/16 13:02:20;;;;;;;18.90;11.98;;;;;;;;;;143742;743;46010;-66
2022/03/16 13:04:54;;;;;;;18.62;12.77;;;;;;;;;;143744;590;45909;-66
2022/03/16 13:07:23;;;;;;;20.20;13.03;;;;;;;;;;143745;581;45024;-66
2022/03/16 13:09:50;;;;;;;20.52;13.20;;;;;;;;;;143744;610;46020;-67
2022/03/16 13:12:18;;;;;;;23.15;15.45;;;;;;;;;;143742;631;46918;-66
2022/03/16 13:14:47;;;;;;;16.37;11.82;;;;;;;;;;143744;564;46020;-66
2022/03/16 13:17:15;;;;;;;20.65;12.20;;;;;;;;;;143745;573;45020;-66
2022/03/16 13:19:48;;;;;;;17.67;12.63;;;;;;;;;;143742;601;46021;-65
2022/03/16 13:22:17;;;;;;;21.65;13.80;;;;;;;;;;143742;607;46917;-65
2022/03/16 13:24:55;;;;;;;18.65;13.30;;;;;;;;;;143738;605;45909;-66
2022/03/16 13:27:24;;;;;;;24.37;13.70;;;;;;;;;;143745;645;45021;-65
2022/03/16 13:29:56;;;;;;;20.62;11.68;;;;;;;;;;143742;609;46020;-66
2022/03/16 13:32:36;;;;;;;18.20;10.68;;;;;;;;;;143740;564;46021;-66
2022/03/16 13:35:18;;;;;;;15.15;10.27;;;;;;;;;;143743;577;46010;-66
2022/03/16 13:38:03;;;;;;;17.83;12.02;;;;;;;;;;143745;632;45020;-65
2022/03/16 13:40:38;;;;;;;18.65;10.90;;;;;;;;;;143742;601;46022;-66
2022/03/16 13:43:15;;;;;;;23.67;11.65;;;;;;;;;;143743;620;46010;-66
2022/03/16 13:45:52;;;;;;;19.20;12.65;;;;;;;;;;143742;578;46909;-66
2022/03/16 13:48:22;;;;;;;20.65;12.10;;;;;;;;;;143746;582;45059;-65
2022/03/16 13:51:15;;;;;;;17.80;11.68;;;;;;;;;;143736;645;46020;-65
2022/03/16 13:53:48;;;;;;;16.52;10.93;;;;;;;;;;143743;627;46020;-66
2022/03/16 13:56:21;;;;;;;20.42;12.13;;;;;;;;;;143743;627;46013;-65
2022/03/16 13:58:53;;;;;;;23.58;11.48;;;;;;;;;;143744;573;45020;-66
2022/03/16 14:01:28;;;;;;;16.08;11.05;;;;;;;;;;143744;580;46020;-66
2022/03/16 14:04:21;;;;;;;17.33;10.73;;;;;;;;;;143741;647;46021;-65
2022/03/16 14:06:49;;;;;;;15.95;10.63;;;;;;;;;;143743;687;45910;-66
2022/03/16 14:09:25;;;;;;;16.73;10.70;;;;;;;;;;143745;619;45020;-66
2022/03/16 14:11:53;;;;;;;19.62;12.73;;;;;;;;;;143742;599;46023;-66
2022/03/16 14:14:20;;;;;;;23.95;13.00;;;;;;;;;;143737;576;47917;-65
2022/03/16 14:16:52;;;;;;;22.15;12.00;;;;;;;;;;143734;637;46911;-65
2022/03/16 14:19:26;;;;;;;14.40;9.63;;;;;;;;;;143739;635;45021;-65
2022/03/16 14:21:52;;;;;;;13.30;10.40;;;;;;;;;;143740;609;46022;-66
2022/03/16 14:24:20;;;;;;;15.95;10.52;;;;;;;;;;143736;578;46917;-65
2022/03/16 14:26:47;;;;;;;19.23;11.88;;;;;;;;;;143741;615;46012;-65
2022/03/16 14:29:14;;;;;;;21.70;11.15;;;;;;;;;;143742;647;46020;-65
2022/03/16 14:31:43;;;;;;;19.37;12.15;;;;;;;;;;143739;576;47021;-65
2022/03/16 14:34:10;;;;;;;20.48;10.63;;;;;;;;;;143738;577;46021;-65
2022/03/16 14:36:37;;;;;;;16.90;10.95;;;;;;;;;;143741;631;45911;-65
2022/03/16 14:39:04;;;;;;;16.75;11.43;;;;;;;;;;143740;578;46020;-65
2022/03/16 14:41:31;;;;;;;16.98;10.55;;;;;;;;;;143734;576;46021;-65
2022/03/16 14:43:58;;;;;;;15.25;10.10;;;;;;;;;;143739;581;46917;-66
2022/03/16 14:46:26;;;;;;;18.35;10.18;;;;;;;;;;143743;627;45911;-67
2022/03/16 14:48:54;;;;;;;13.62;9.60;;;;;;;;;;143740;642;46021;-66
2022/03/16 14:51:21;;;;;;;12.82;9.75;;;;;;;;;;143741;577;46020;-65